Time,TemperatureF,DewpointF,PressureIn,WindDirection,WindDirectionDegrees,WindSpeedMPH,WindSpeedGustMPH,Humidity,HourlyPrecipIn,Conditions,Clouds,dailyrainin,SoftwareType,DateUTC
2013-03-09 00:00:00,30.6,19.4,30.22,SSW,202,2.9,5.8,63,0.00,,,0.00,WUHU21623XXSP,2013-03-09 06:00:00,
2013-03-09 00:05:00,30.6,19.4,30.22,SSW,202,2.9,2.9,63,0.00,,,0.00,WUHU21623XXSP,2013-03-09 06:05:00,
2013-03-09 00:10:00,30.6,19.0,30.21,SE,135,6.9,6.9,62,0.00,,,0.00,WUHU21623XXSP,2013-03-09 06:10:00,
2013-03-09 00:15:00,30.6,19.0,30.21,SSE,157,1.3,6.9,62,0.00,,,0.00,WUHU21623XXSP,2013-03-09 06:15:00,
2013-03-09 00:20:00,30.6,19.0,30.20,ESE,112,2.5,6.0,62,0.00,,,0.00,WUHU21623XXSP,2013-03-09 06:20:00,
2013-03-09 00:25:00,30.7,19.2,30.20,ESE,112,2.9,6.0,62,0.00,,,0.00,WUHU21623XXSP,2013-03-09 06:25:00,
2013-03-09 00:30:00,30.6,19.0,30.21,SE,135,3.4,3.4,62,0.00,,,0.00,WUHU21623XXSP,2013-03-09 06:30:00,
2013-03-09 00:35:00,30.7,19.2,30.20,SE,135,2.0,4.7,62,0.00,,,0.00,WUHU21623XXSP,2013-03-09 06:35:00,
2013-03-09 00:40:00,30.9,19.4,30.20,SE,135,4.7,6.5,62,0.00,,,0.00,WUHU21623XXSP,2013-03-09 06:40:00,
2013-03-09 00:45:00,30.9,19.4,30.20,SE,135,4.5,6.5,62,0.00,,,0.00,WUHU21623XXSP,2013-03-09 06:45:00,
2013-03-09 00:50:00,31.1,19.6,30.20,SSE,157,6.9,6.9,62,0.00,,,0.00,WUHU21623XXSP,2013-03-09 06:50:00,
2013-03-09 00:55:00,31.1,19.6,30.20,ESE,112,0.4,6.9,62,0.00,,,0.00,WUHU21623XXSP,2013-03-09 06:55:00,
2013-03-09 01:00:00,31.1,19.6,30.20,South,180,3.1,7.2,62,0.00,,,0.00,WUHU21623XXSP,2013-03-09 07:00:00,
2013-03-09 01:05:00,31.1,19.6,30.20,SE,135,2.0,7.2,62,0.00,,,0.00,WUHU21623XXSP,2013-03-09 07:05:00,
2013-03-09 01:10:00,31.1,19.6,30.20,South,180,2.2,2.9,62,0.00,,,0.00,WUHU21623XXSP,2013-03-09 07:10:00,
2013-03-09 01:15:00,31.1,19.6,30.20,SE,135,3.6,4.9,62,0.00,,,0.00,WUHU21623XXSP,2013-03-09 07:15:00,
2013-03-09 01:20:00,31.1,19.6,30.20,SE,135,2.0,4.9,62,0.00,,,0.00,WUHU21623XXSP,2013-03-09 07:20:00,
2013-03-09 01:25:00,30.9,19.4,30.19,SSE,157,1.3,7.8,62,0.00,,,0.00,WUHU21623XXSP,2013-03-09 07:25:00,
2013-03-09 01:30:00,30.9,19.4,30.19,SSE,157,8.1,8.1,62,0.00,,,0.00,WUHU21623XXSP,2013-03-09 07:30:00,
2013-03-09 01:35:00,30.7,19.2,30.19,SE,135,3.4,8.1,62,0.00,,,0.00,WUHU21623XXSP,2013-03-09 07:35:00,
2013-03-09 01:40:00,30.7,19.2,30.18,SE,135,2.9,5.1,62,0.00,,,0.00,WUHU21623XXSP,2013-03-09 07:40:00,
2013-03-09 01:45:00,30.9,19.8,30.17,SE,135,3.4,5.1,63,0.00,,,0.00,WUHU21623XXSP,2013-03-09 07:45:00,
2013-03-09 01:50:00,30.9,19.8,30.17,East,90,4.5,4.5,63,0.00,,,0.00,WUHU21623XXSP,2013-03-09 07:50:00,
2013-03-09 01:55:00,30.9,19.8,30.17,East,90,7.2,7.2,63,0.00,,,0.00,WUHU21623XXSP,2013-03-09 07:55:00,
2013-03-09 02:00:00,31.1,19.9,30.16,SE,135,6.3,7.2,63,0.00,,,0.00,WUHU21623XXSP,2013-03-09 08:00:00,
2013-03-09 02:05:00,31.1,19.9,30.16,ESE,112,5.8,6.3,63,0.00,,,0.00,WUHU21623XXSP,2013-03-09 08:05:00,
2013-03-09 02:10:00,31.1,19.9,30.15,SE,135,1.3,5.8,63,0.00,,,0.00,WUHU21623XXSP,2013-03-09 08:10:00,
2013-03-09 02:15:00,31.5,20.3,30.15,SE,135,4.0,4.9,63,0.00,,,0.00,WUHU21623XXSP,2013-03-09 08:15:00,
2013-03-09 02:20:00,31.5,20.3,30.14,SE,135,4.0,4.9,63,0.00,,,0.00,WUHU21623XXSP,2013-03-09 08:20:00,
2013-03-09 02:25:00,31.5,20.3,30.14,South,180,4.9,4.9,63,0.00,,,0.00,WUHU21623XXSP,2013-03-09 08:25:00,
2013-03-09 02:30:00,31.6,20.5,30.14,SE,135,6.5,6.5,63,0.00,,,0.00,WUHU21623XXSP,2013-03-09 08:30:00,
2013-03-09 02:35:00,31.5,20.3,30.14,SSE,157,3.6,6.5,63,0.00,,,0.00,WUHU21623XXSP,2013-03-09 08:35:00,
2013-03-09 02:40:00,31.8,20.7,30.14,South,180,2.5,6.3,63,0.00,,,0.00,WUHU21623XXSP,2013-03-09 08:40:00,
2013-03-09 02:45:00,31.8,20.7,30.13,SE,135,4.3,4.9,63,0.00,,,0.00,WUHU21623XXSP,2013-03-09 08:45:00,
2013-03-09 02:50:00,31.8,20.7,30.13,SE,135,6.5,6.5,63,0.00,,,0.00,WUHU21623XXSP,2013-03-09 08:50:00,
2013-03-09 02:55:00,31.8,20.7,30.13,South,180,1.8,6.7,63,0.00,,,0.00,WUHU21623XXSP,2013-03-09 08:55:00,
2013-03-09 03:00:00,31.8,20.7,30.13,SE,135,9.2,9.8,63,0.00,,,0.00,WUHU21623XXSP,2013-03-09 09:00:00,
2013-03-09 03:05:00,31.8,20.7,30.13,SSE,157,6.9,9.8,63,0.00,,,0.00,WUHU21623XXSP,2013-03-09 09:05:00,
2013-03-09 03:10:00,31.8,20.7,30.13,SE,135,6.9,6.9,63,0.00,,,0.00,WUHU21623XXSP,2013-03-09 09:10:00,
2013-03-09 03:15:00,32.0,20.8,30.13,ESE,112,1.8,6.9,63,0.00,,,0.00,WUHU21623XXSP,2013-03-09 09:15:00,
2013-03-09 03:20:00,32.0,20.8,30.13,SE,135,2.0,5.8,63,0.00,,,0.00,WUHU21623XXSP,2013-03-09 09:20:00,
2013-03-09 03:25:00,32.2,21.0,30.13,SE,135,6.9,6.9,63,0.00,,,0.00,WUHU21623XXSP,2013-03-09 09:25:00,
2013-03-09 03:30:00,32.2,21.0,30.14,SE,135,2.9,6.9,63,0.00,,,0.00,WUHU21623XXSP,2013-03-09 09:30:00,
2013-03-09 03:35:00,32.2,21.0,30.13,South,180,1.6,5.1,63,0.00,,,0.00,WUHU21623XXSP,2013-03-09 09:35:00,
2013-03-09 03:40:00,32.2,21.0,30.14,SE,135,1.1,3.4,63,0.00,,,0.00,WUHU21623XXSP,2013-03-09 09:40:00,
2013-03-09 03:45:00,32.2,21.4,30.14,SSE,157,3.4,3.4,64,0.00,,,0.00,WUHU21623XXSP,2013-03-09 09:45:00,
2013-03-09 03:50:00,32.2,21.4,30.14,South,180,2.9,3.4,64,0.00,,,0.00,WUHU21623XXSP,2013-03-09 09:50:00,
2013-03-09 03:55:00,32.2,21.4,30.14,SSE,157,4.0,4.3,64,0.00,,,0.00,WUHU21623XXSP,2013-03-09 09:55:00,
2013-03-09 04:00:00,32.4,21.9,30.14,SE,135,1.8,4.3,65,0.00,,,0.00,WUHU21623XXSP,2013-03-09 10:00:00,
2013-03-09 04:05:00,32.4,21.9,30.14,SE,135,3.8,3.8,65,0.00,,,0.00,WUHU21623XXSP,2013-03-09 10:05:00,
2013-03-09 04:10:00,32.4,21.9,30.14,SE,135,0.7,3.8,65,0.00,,,0.00,WUHU21623XXSP,2013-03-09 10:10:00,
2013-03-09 04:15:00,32.5,22.0,30.14,SSE,157,3.4,4.9,65,0.00,,,0.00,WUHU21623XXSP,2013-03-09 10:15:00,
2013-03-09 04:20:00,32.5,22.0,30.14,SSE,157,1.6,4.9,65,0.00,,,0.00,WUHU21623XXSP,2013-03-09 10:20:00,
2013-03-09 04:25:00,32.7,22.2,30.14,SE,135,1.3,6.3,65,0.00,,,0.00,WUHU21623XXSP,2013-03-09 10:25:00,
2013-03-09 04:30:00,32.7,22.2,30.14,SSE,157,5.8,6.7,65,0.00,,,0.00,WUHU21623XXSP,2013-03-09 10:30:00,
2013-03-09 04:35:00,32.9,22.4,30.14,SE,135,2.9,6.7,65,0.00,,,0.00,WUHU21623XXSP,2013-03-09 10:35:00,
2013-03-09 04:40:00,32.9,22.4,30.13,SSE,157,4.7,6.0,65,0.00,,,0.00,WUHU21623XXSP,2013-03-09 10:40:00,
2013-03-09 04:45:00,32.9,22.4,30.13,SE,135,10.1,10.1,65,0.00,,,0.00,WUHU21623XXSP,2013-03-09 10:45:00,
2013-03-09 04:50:00,33.1,22.9,30.12,SE,135,4.7,10.1,66,0.00,,,0.00,WUHU21623XXSP,2013-03-09 10:50:00,
2013-03-09 04:55:00,33.1,22.9,30.11,SSE,157,6.3,9.2,66,0.00,,,0.00,WUHU21623XXSP,2013-03-09 10:55:00,
2013-03-09 05:00:00,33.3,23.1,30.12,SE,135,5.4,9.2,66,0.00,,,0.00,WUHU21623XXSP,2013-03-09 11:00:00,
2013-03-09 05:05:00,33.3,23.1,30.12,SSW,202,5.4,5.4,66,0.00,,,0.00,WUHU21623XXSP,2013-03-09 11:05:00,
2013-03-09 05:10:00,33.3,23.1,30.12,SE,135,6.5,10.3,66,0.00,,,0.00,WUHU21623XXSP,2013-03-09 11:10:00,
2013-03-09 05:15:00,33.3,23.1,30.12,SSW,202,4.3,10.3,66,0.00,,,0.00,WUHU21623XXSP,2013-03-09 11:15:00,
2013-03-09 05:20:00,33.3,23.4,30.12,SSE,157,5.8,6.0,67,0.00,,,0.00,WUHU21623XXSP,2013-03-09 11:20:00,
2013-03-09 05:25:00,33.4,23.6,30.12,ESE,112,4.5,6.0,67,0.00,,,0.00,WUHU21623XXSP,2013-03-09 11:25:00,
2013-03-09 05:30:00,33.4,23.6,30.12,SSE,157,8.3,8.3,67,0.00,,,0.00,WUHU21623XXSP,2013-03-09 11:30:00,
2013-03-09 05:35:00,33.4,23.9,30.12,SE,135,2.9,8.3,68,0.00,,,0.00,WUHU21623XXSP,2013-03-09 11:35:00,
2013-03-09 05:40:00,33.3,23.8,30.12,SSE,157,6.7,6.7,68,0.00,,,0.00,WUHU21623XXSP,2013-03-09 11:40:00,
2013-03-09 05:45:00,33.4,23.9,30.11,South,180,6.5,6.7,68,0.00,,,0.00,WUHU21623XXSP,2013-03-09 11:45:00,
2013-03-09 05:50:00,33.4,23.9,30.11,SE,135,4.9,6.5,68,0.00,,,0.00,WUHU21623XXSP,2013-03-09 11:50:00,
2013-03-09 05:55:00,33.4,24.3,30.11,SSE,157,4.5,4.9,69,0.00,,,0.00,WUHU21623XXSP,2013-03-09 11:55:00,
2013-03-09 06:00:00,33.4,24.3,30.11,SSE,157,2.9,4.5,69,0.00,,,0.00,WUHU21623XXSP,2013-03-09 12:00:00,
2013-03-09 06:05:00,33.4,24.3,30.11,SE,135,4.7,5.1,69,0.00,,,0.00,WUHU21623XXSP,2013-03-09 12:05:00,
2013-03-09 06:10:00,33.4,24.7,30.10,SE,135,4.0,5.1,70,0.00,,,0.00,WUHU21623XXSP,2013-03-09 12:10:00,
2013-03-09 06:15:00,33.4,24.7,30.10,SSE,157,2.7,4.7,70,0.00,,,0.00,WUHU21623XXSP,2013-03-09 12:15:00,
2013-03-09 06:20:00,33.4,25.0,30.09,South,180,4.7,5.8,71,0.00,,,0.00,WUHU21623XXSP,2013-03-09 12:20:00,
2013-03-09 06:25:00,33.4,25.0,30.09,South,180,3.8,5.8,71,0.00,,,0.00,WUHU21623XXSP,2013-03-09 12:25:00,
2013-03-09 06:30:00,33.4,25.0,30.09,SE,135,1.6,3.8,71,0.00,,,0.00,WUHU21623XXSP,2013-03-09 12:30:00,
2013-03-09 06:35:00,33.6,25.5,30.10,SSE,157,3.4,6.5,72,0.00,,,0.00,WUHU21623XXSP,2013-03-09 12:35:00,
2013-03-09 06:40:00,33.6,25.5,30.09,SE,135,4.3,6.5,72,0.00,,,0.00,WUHU21623XXSP,2013-03-09 12:40:00,
2013-03-09 06:45:00,33.6,25.5,30.09,SE,135,4.5,7.2,72,0.00,,,0.00,WUHU21623XXSP,2013-03-09 12:45:00,
2013-03-09 06:50:00,33.6,25.5,30.10,SSE,157,1.8,7.2,72,0.00,,,0.00,WUHU21623XXSP,2013-03-09 12:50:00,
2013-03-09 06:55:00,34.0,25.8,30.10,South,180,3.8,6.9,72,0.00,,,0.00,WUHU21623XXSP,2013-03-09 12:55:00,
2013-03-09 07:00:00,33.8,25.6,30.10,SSE,157,4.7,6.3,72,0.00,,,0.00,WUHU21623XXSP,2013-03-09 13:00:00,
2013-03-09 07:05:00,33.8,25.6,30.11,SE,135,5.4,6.3,72,0.00,,,0.00,WUHU21623XXSP,2013-03-09 13:05:00,
2013-03-09 07:10:00,34.0,25.8,30.11,SSE,157,3.4,6.3,72,0.00,,,0.00,WUHU21623XXSP,2013-03-09 13:10:00,
2013-03-09 07:15:00,33.8,25.6,30.11,South,180,7.6,7.6,72,0.00,,,0.00,WUHU21623XXSP,2013-03-09 13:15:00,
2013-03-09 07:20:00,34.0,26.1,30.11,SSE,157,0.0,7.6,73,0.00,,,0.00,WUHU21623XXSP,2013-03-09 13:20:00,
2013-03-09 07:25:00,33.8,26.0,30.10,SE,135,2.5,6.0,73,0.00,,,0.00,WUHU21623XXSP,2013-03-09 13:25:00,
2013-03-09 07:30:00,33.8,26.0,30.11,SE,135,1.6,4.9,73,0.00,,,0.00,WUHU21623XXSP,2013-03-09 13:30:00,
2013-03-09 07:35:00,34.0,26.1,30.10,SE,135,1.1,5.6,73,0.00,,,0.00,WUHU21623XXSP,2013-03-09 13:35:00,
2013-03-09 07:40:00,34.0,26.1,30.10,SSE,157,6.5,6.5,73,0.00,,,0.00,WUHU21623XXSP,2013-03-09 13:40:00,
2013-03-09 07:45:00,34.0,26.5,30.10,SE,135,1.3,6.5,74,0.00,,,0.00,WUHU21623XXSP,2013-03-09 13:45:00,
2013-03-09 07:50:00,34.2,26.6,30.10,SE,135,3.6,4.3,74,0.00,,,0.00,WUHU21623XXSP,2013-03-09 13:50:00,
2013-03-09 07:55:00,34.2,26.6,30.10,SE,135,2.9,4.3,74,0.00,,,0.00,WUHU21623XXSP,2013-03-09 13:55:00,
2013-03-09 08:00:00,34.2,26.6,30.10,SE,135,3.4,3.4,74,0.00,,,0.00,WUHU21623XXSP,2013-03-09 14:00:00,
2013-03-09 08:05:00,34.3,26.8,30.10,SSE,157,6.9,6.9,74,0.00,,,0.00,WUHU21623XXSP,2013-03-09 14:05:00,
2013-03-09 08:10:00,34.3,26.8,30.09,SE,135,4.9,6.9,74,0.00,,,0.00,WUHU21623XXSP,2013-03-09 14:10:00,
2013-03-09 08:15:00,34.7,27.2,30.09,SE,135,1.3,4.9,74,0.00,,,0.00,WUHU21623XXSP,2013-03-09 14:15:00,
2013-03-09 08:20:00,34.7,27.2,30.09,SE,135,2.7,5.4,74,0.00,,,0.00,WUHU21623XXSP,2013-03-09 14:20:00,
2013-03-09 08:25:00,35.1,27.5,30.09,SSE,157,3.8,5.4,74,0.00,,,0.00,WUHU21623XXSP,2013-03-09 14:25:00,
2013-03-09 08:30:00,35.1,27.5,30.08,South,180,6.9,6.9,74,0.00,,,0.00,WUHU21623XXSP,2013-03-09 14:30:00,
2013-03-09 08:35:00,35.2,27.4,30.08,SSE,157,3.6,6.9,73,0.00,,,0.00,WUHU21623XXSP,2013-03-09 14:35:00,
2013-03-09 08:40:00,35.2,27.4,30.08,SSE,157,3.1,6.5,73,0.00,,,0.00,WUHU21623XXSP,2013-03-09 14:40:00,
2013-03-09 08:45:00,35.6,27.4,30.08,ESE,112,4.7,4.7,72,0.00,,,0.00,WUHU21623XXSP,2013-03-09 14:45:00,
2013-03-09 08:50:00,35.8,27.6,30.07,ESE,112,4.5,4.7,72,0.00,,,0.00,WUHU21623XXSP,2013-03-09 14:50:00,
2013-03-09 08:55:00,36.0,27.8,30.06,South,180,3.6,6.0,72,0.00,,,0.00,WUHU21623XXSP,2013-03-09 14:55:00,
2013-03-09 09:00:00,36.1,27.6,30.05,SE,135,8.9,8.9,71,0.00,,,0.00,WUHU21623XXSP,2013-03-09 15:00:00,
2013-03-09 09:05:00,36.1,27.3,30.05,SSE,157,5.8,8.9,70,0.00,,,0.00,WUHU21623XXSP,2013-03-09 15:05:00,
2013-03-09 09:10:00,36.1,27.3,30.05,SSE,157,5.8,8.7,70,0.00,,,0.00,WUHU21623XXSP,2013-03-09 15:10:00,
2013-03-09 09:15:00,36.3,27.1,30.04,SE,135,5.1,5.8,69,0.00,,,0.00,WUHU21623XXSP,2013-03-09 15:15:00,
2013-03-09 09:20:00,36.5,26.9,30.04,SSE,157,6.5,6.5,68,0.00,,,0.00,WUHU21623XXSP,2013-03-09 15:20:00,
2013-03-09 09:25:00,36.5,26.9,30.03,SSE,157,6.7,6.7,68,0.00,,,0.00,WUHU21623XXSP,2013-03-09 15:25:00,
2013-03-09 09:30:00,36.5,26.9,30.03,SE,135,5.6,6.7,67,0.00,,,0.00,WUHU21623XXSP,2013-03-09 15:30:00,
2013-03-09 09:35:00,36.9,26.9,30.03,ESE,112,1.3,6.7,67,0.00,,,0.00,WUHU21623XXSP,2013-03-09 15:35:00,
2013-03-09 09:40:00,37.0,26.7,30.03,SSE,157,6.3,6.3,66,0.00,,,0.00,WUHU21623XXSP,2013-03-09 15:40:00,
2013-03-09 09:45:00,37.4,27.1,30.02,SE,135,8.3,8.3,66,0.00,,,0.00,WUHU21623XXSP,2013-03-09 15:45:00,
2013-03-09 09:50:00,37.6,26.9,30.03,SSE,157,6.5,8.3,65,0.00,,,0.00,WUHU21623XXSP,2013-03-09 15:50:00,
2013-03-09 09:55:00,37.4,26.7,30.03,SE,135,2.9,8.3,65,0.00,,,0.00,WUHU21623XXSP,2013-03-09 15:55:00,
2013-03-09 10:00:00,37.8,27.0,30.03,SE,135,4.7,6.5,65,0.00,,,0.00,WUHU21623XXSP,2013-03-09 16:00:00,
2013-03-09 10:05:00,37.6,26.9,30.02,SSW,202,9.2,9.2,65,0.00,,,0.00,WUHU21623XXSP,2013-03-09 16:05:00,
2013-03-09 10:10:00,37.6,26.5,30.02,SE,135,4.5,9.2,64,0.00,,,0.00,WUHU21623XXSP,2013-03-09 16:10:00,
2013-03-09 10:15:00,37.6,26.5,30.02,SE,135,4.7,4.7,64,0.00,,,0.00,WUHU21623XXSP,2013-03-09 16:15:00,
2013-03-09 10:20:00,37.6,26.5,30.01,SSE,157,6.0,7.6,64,0.00,,,0.00,WUHU21623XXSP,2013-03-09 16:20:00,
2013-03-09 10:25:00,37.4,26.3,30.01,SSE,157,5.6,7.6,64,0.00,,,0.00,WUHU21623XXSP,2013-03-09 16:25:00,
2013-03-09 10:30:00,37.2,26.1,30.01,South,180,4.0,5.6,64,0.00,,,0.00,WUHU21623XXSP,2013-03-09 16:30:00,
2013-03-09 10:35:00,37.2,26.1,30.01,SSE,157,3.1,5.1,64,0.00,,,0.00,WUHU21623XXSP,2013-03-09 16:35:00,
2013-03-09 10:40:00,37.6,26.5,30.01,SE,135,6.0,6.0,64,0.00,,,0.00,WUHU21623XXSP,2013-03-09 16:40:00,
2013-03-09 10:45:00,37.4,26.1,30.01,SSE,157,1.8,6.0,64,0.00,,,0.00,WUHU21623XXSP,2013-03-09 16:45:00,
2013-03-09 10:50:00,37.2,26.1,30.01,SE,135,5.4,5.4,64,0.00,,,0.00,WUHU21623XXSP,2013-03-09 16:50:00,
2013-03-09 10:55:00,37.0,26.0,30.01,SE,135,3.1,5.4,64,0.00,,,0.00,WUHU21623XXSP,2013-03-09 16:55:00,
2013-03-09 11:00:00,37.4,26.7,30.01,South,180,6.9,6.9,65,0.00,,,0.00,WUHU21623XXSP,2013-03-09 17:00:00,
2013-03-09 11:05:00,37.4,26.7,30.00,SSE,157,7.2,7.2,65,0.00,,,0.00,WUHU21623XXSP,2013-03-09 17:05:00,
2013-03-09 11:10:00,37.0,26.3,30.00,SSE,157,6.0,7.2,65,0.00,,,0.00,WUHU21623XXSP,2013-03-09 17:10:00,
2013-03-09 11:15:00,37.4,26.7,29.99,SSE,157,5.6,6.0,65,0.00,,,0.00,WUHU21623XXSP,2013-03-09 17:15:00,
2013-03-09 11:20:00,37.4,26.7,29.99,SE,135,6.3,6.3,65,0.00,,,0.00,WUHU21623XXSP,2013-03-09 17:20:00,
2013-03-09 11:25:00,37.6,26.9,29.99,SE,135,3.6,8.3,65,0.00,,,0.00,WUHU21623XXSP,2013-03-09 17:25:00,
2013-03-09 11:30:00,37.6,26.9,29.98,East,90,3.1,8.3,65,0.00,,,0.00,WUHU21623XXSP,2013-03-09 17:30:00,
2013-03-09 11:35:00,37.6,26.9,29.98,SE,135,6.5,6.5,65,0.00,,,0.00,WUHU21623XXSP,2013-03-09 17:35:00,
2013-03-09 11:40:00,37.6,26.9,29.98,East,90,6.3,6.5,65,0.00,,,0.00,WUHU21623XXSP,2013-03-09 17:40:00,
2013-03-09 11:45:00,37.8,27.0,29.98,ESE,112,3.6,6.3,65,0.00,,,0.00,WUHU21623XXSP,2013-03-09 17:45:00,
2013-03-09 11:50:00,37.6,26.5,29.97,SSE,157,3.6,6.3,64,0.00,,,0.00,WUHU21623XXSP,2013-03-09 17:50:00,
2013-03-09 11:55:00,37.6,26.5,29.97,South,180,6.7,11.0,64,0.00,,,0.00,WUHU21623XXSP,2013-03-09 17:55:00,
2013-03-09 12:00:00,37.4,26.3,29.97,SSE,157,9.6,11.0,64,0.00,,,0.00,WUHU21623XXSP,2013-03-09 18:00:00,
2013-03-09 12:05:00,37.2,26.5,29.97,SSE,157,6.3,9.6,65,0.00,,,0.00,WUHU21623XXSP,2013-03-09 18:05:00,
2013-03-09 12:10:00,37.2,26.5,29.97,SSE,157,5.4,6.3,65,0.00,,,0.00,WUHU21623XXSP,2013-03-09 18:10:00,
2013-03-09 12:15:00,37.0,26.3,29.97,SE,135,5.1,5.8,65,0.00,,,0.00,WUHU21623XXSP,2013-03-09 18:15:00,
2013-03-09 12:20:00,36.9,26.5,29.97,SE,135,9.2,9.2,66,0.00,,,0.00,WUHU21623XXSP,2013-03-09 18:20:00,
2013-03-09 12:25:00,37.0,26.7,29.96,SSE,157,6.0,9.2,66,0.00,,,0.00,WUHU21623XXSP,2013-03-09 18:25:00,
2013-03-09 12:30:00,37.0,26.7,29.96,ESE,112,2.0,6.0,66,0.00,,,0.00,WUHU21623XXSP,2013-03-09 18:30:00,
2013-03-09 12:35:00,37.4,27.4,29.96,SE,135,3.6,4.3,67,0.00,,,0.00,WUHU21623XXSP,2013-03-09 18:35:00,
2013-03-09 12:40:00,37.4,27.4,29.96,SE,135,3.6,3.6,67,0.00,,,0.00,WUHU21623XXSP,2013-03-09 18:40:00,
2013-03-09 12:45:00,37.6,27.6,29.95,SE,135,2.5,6.3,67,0.00,,,0.00,WUHU21623XXSP,2013-03-09 18:45:00,
2013-03-09 12:50:00,37.4,27.4,29.95,SSE,157,4.3,6.3,67,0.00,,,0.00,WUHU21623XXSP,2013-03-09 18:50:00,
2013-03-09 12:55:00,37.2,27.3,29.94,SSE,157,6.9,6.9,67,0.00,,,0.00,WUHU21623XXSP,2013-03-09 18:55:00,
2013-03-09 13:00:00,37.0,27.1,29.94,SSE,157,4.9,9.2,67,0.00,,,0.00,WUHU21623XXSP,2013-03-09 19:00:00,
2013-03-09 13:05:00,37.0,27.5,29.94,SE,135,5.1,9.2,68,0.00,,,0.00,WUHU21623XXSP,2013-03-09 19:05:00,
2013-03-09 13:10:00,37.0,27.5,29.93,SE,135,6.7,6.7,68,0.00,,,0.00,WUHU21623XXSP,2013-03-09 19:10:00,
2013-03-09 13:15:00,37.0,27.5,29.93,SE,135,2.2,6.7,68,0.00,,,0.00,WUHU21623XXSP,2013-03-09 19:15:00,
2013-03-09 13:20:00,37.0,27.8,29.93,ESE,112,7.4,7.4,69,0.00,,,0.00,WUHU21623XXSP,2013-03-09 19:20:00,
2013-03-09 13:25:00,37.0,27.8,29.92,SSE,157,2.2,7.4,69,0.00,,,0.00,WUHU21623XXSP,2013-03-09 19:25:00,
2013-03-09 13:30:00,37.0,28.2,29.91,SSE,157,4.0,4.7,70,0.00,,,0.00,WUHU21623XXSP,2013-03-09 19:30:00,
2013-03-09 13:35:00,37.0,28.2,29.90,SSE,157,8.5,8.5,70,0.00,,,0.00,WUHU21623XXSP,2013-03-09 19:35:00,
2013-03-09 13:40:00,37.0,28.2,29.90,SSE,157,5.6,8.5,70,0.00,,,0.00,WUHU21623XXSP,2013-03-09 19:40:00,
2013-03-09 13:45:00,37.2,28.4,29.90,South,180,4.7,6.3,70,0.00,,,0.00,WUHU21623XXSP,2013-03-09 19:45:00,
2013-03-09 13:50:00,37.2,28.7,29.90,East,90,1.3,4.7,71,0.00,,,0.00,WUHU21623XXSP,2013-03-09 19:50:00,
2013-03-09 13:55:00,37.0,28.5,29.90,SSE,157,4.7,4.7,71,0.00,,,0.00,WUHU21623XXSP,2013-03-09 19:55:00,
2013-03-09 14:00:00,36.9,28.4,29.90,SSE,157,1.8,6.0,71,0.00,,,0.00,WUHU21623XXSP,2013-03-09 20:00:00,
2013-03-09 14:05:00,36.9,28.4,29.90,SSE,157,2.2,6.0,71,0.00,,,0.00,WUHU21623XXSP,2013-03-09 20:05:00,
2013-03-09 14:10:00,36.9,28.7,29.89,South,180,4.0,4.0,72,0.00,,,0.00,WUHU21623XXSP,2013-03-09 20:10:00,
2013-03-09 14:15:00,36.7,28.8,29.89,SSE,157,4.7,6.5,73,0.00,,,0.00,WUHU21623XXSP,2013-03-09 20:15:00,
2013-03-09 14:20:00,36.5,28.7,29.89,SE,135,6.3,6.5,73,0.00,,,0.00,WUHU21623XXSP,2013-03-09 20:20:00,
2013-03-09 14:25:00,36.3,28.5,29.89,SE,135,5.6,6.3,73,0.00,,,0.00,WUHU21623XXSP,2013-03-09 20:25:00,
2013-03-09 14:30:00,36.3,28.8,29.88,SE,135,2.9,6.0,74,0.00,,,0.00,WUHU21623XXSP,2013-03-09 20:30:00,
2013-03-09 14:35:00,36.1,28.6,29.88,SSE,157,6.0,6.0,74,0.00,,,0.00,WUHU21623XXSP,2013-03-09 20:35:00,
2013-03-09 14:40:00,36.1,28.9,29.88,SSE,157,4.3,6.0,75,0.00,,,0.00,WUHU21623XXSP,2013-03-09 20:40:00,
2013-03-09 14:45:00,36.3,29.1,29.87,SE,135,3.4,5.6,75,0.00,,,0.00,WUHU21623XXSP,2013-03-09 20:45:00,
2013-03-09 14:50:00,36.5,29.6,29.87,SE,135,5.6,5.6,76,0.00,,,0.00,WUHU21623XXSP,2013-03-09 20:50:00,
2013-03-09 14:55:00,36.5,29.9,29.86,SE,135,7.2,7.2,77,0.00,,,0.00,WUHU21623XXSP,2013-03-09 20:55:00,
2013-03-09 15:00:00,36.5,29.9,29.86,SSE,157,2.9,7.2,77,0.00,,,0.00,WUHU21623XXSP,2013-03-09 21:00:00,
2013-03-09 15:05:00,36.9,30.3,29.86,SE,135,4.7,6.0,77,0.00,,,0.00,WUHU21623XXSP,2013-03-09 21:05:00,
2013-03-09 15:10:00,36.9,30.6,29.86,South,180,6.9,6.9,78,0.00,,,0.00,WUHU21623XXSP,2013-03-09 21:10:00,
2013-03-09 15:15:00,37.0,30.8,29.86,SE,135,4.3,6.9,78,0.00,,,0.00,WUHU21623XXSP,2013-03-09 21:15:00,
2013-03-09 15:20:00,36.9,30.6,29.86,SE,135,4.9,5.8,78,0.00,,,0.00,WUHU21623XXSP,2013-03-09 21:20:00,
2013-03-09 15:25:00,36.7,30.1,29.86,SE,135,6.5,6.5,77,0.00,,,0.00,WUHU21623XXSP,2013-03-09 21:25:00,
2013-03-09 15:30:00,36.5,29.9,29.86,SSE,157,6.5,6.5,77,0.00,,,0.00,WUHU21623XXSP,2013-03-09 21:30:00,
2013-03-09 15:35:00,36.5,29.9,29.85,SSE,157,4.5,6.5,77,0.00,,,0.00,WUHU21623XXSP,2013-03-09 21:35:00,
2013-03-09 15:40:00,36.3,29.8,29.85,SSE,157,7.2,7.2,77,0.00,,,0.00,WUHU21623XXSP,2013-03-09 21:40:00,
2013-03-09 15:45:00,36.3,30.1,29.84,SE,135,8.5,10.7,78,0.00,,,0.00,WUHU21623XXSP,2013-03-09 21:45:00,
2013-03-09 15:50:00,36.1,29.9,29.84,ENE,67,5.8,10.7,78,0.00,,,0.00,WUHU21623XXSP,2013-03-09 21:50:00,
2013-03-09 15:55:00,36.3,30.1,29.84,SE,135,4.9,7.6,78,0.00,,,0.00,WUHU21623XXSP,2013-03-09 21:55:00,
2013-03-09 16:00:00,36.3,30.1,29.84,ESE,112,5.6,7.6,78,0.00,,,0.00,WUHU21623XXSP,2013-03-09 22:00:00,
2013-03-09 16:05:00,36.5,30.3,29.83,SSE,157,9.8,9.8,78,0.00,,,0.00,WUHU21623XXSP,2013-03-09 22:05:00,
2013-03-09 16:10:00,36.5,30.3,29.83,SSE,157,6.5,9.8,78,0.00,,,0.00,WUHU21623XXSP,2013-03-09 22:10:00,
2013-03-09 16:15:00,36.5,30.3,29.83,SE,135,0.9,6.5,78,0.00,,,0.00,WUHU21623XXSP,2013-03-09 22:15:00,
2013-03-09 16:20:00,36.7,30.5,29.83,SSE,157,3.1,6.0,78,0.00,,,0.00,WUHU21623XXSP,2013-03-09 22:20:00,
2013-03-09 16:25:00,36.9,30.6,29.82,ESE,112,4.5,6.0,78,0.00,,,0.00,WUHU21623XXSP,2013-03-09 22:25:00,
2013-03-09 16:30:00,36.9,30.6,29.82,SE,135,1.3,4.7,78,0.00,,,0.00,WUHU21623XXSP,2013-03-09 22:30:00,
2013-03-09 16:35:00,37.0,30.5,29.82,SE,135,9.6,9.6,77,0.00,,,0.00,WUHU21623XXSP,2013-03-09 22:35:00,
2013-03-09 16:40:00,37.0,30.5,29.82,SE,135,3.4,9.6,77,0.00,,,0.00,WUHU21623XXSP,2013-03-09 22:40:00,
2013-03-09 16:45:00,37.2,30.5,29.83,SSE,157,4.3,4.3,77,0.00,,,0.00,WUHU21623XXSP,2013-03-09 22:45:00,
2013-03-09 16:50:00,37.0,30.2,29.82,SE,135,6.9,8.7,76,0.00,,,0.00,WUHU21623XXSP,2013-03-09 22:50:00,
2013-03-09 16:55:00,37.2,30.3,29.82,SE,135,10.5,10.5,76,0.00,,,0.00,WUHU21623XXSP,2013-03-09 22:55:00,
2013-03-09 17:00:00,37.4,30.2,29.81,SE,135,3.4,10.5,75,0.00,,,0.00,WUHU21623XXSP,2013-03-09 23:00:00,
2013-03-09 17:05:00,37.6,30.4,29.82,SE,135,3.4,5.1,75,0.00,,,0.00,WUHU21623XXSP,2013-03-09 23:05:00,
2013-03-09 17:10:00,37.6,30.4,29.82,SE,135,2.0,5.1,75,0.00,,,0.00,WUHU21623XXSP,2013-03-09 23:10:00,
2013-03-09 17:15:00,37.6,30.4,29.82,SSE,157,0.9,4.0,75,0.00,,,0.00,WUHU21623XXSP,2013-03-09 23:15:00,
2013-03-09 17:20:00,37.4,29.9,29.82,SSW,202,2.5,3.4,74,0.00,,,0.00,WUHU21623XXSP,2013-03-09 23:20:00,
2013-03-09 17:25:00,37.4,29.9,29.83,SE,135,0.9,2.5,74,0.00,,,0.00,WUHU21623XXSP,2013-03-09 23:25:00,
2013-03-09 17:30:00,37.0,29.5,29.83,South,180,2.0,2.9,74,0.00,,,0.00,WUHU21623XXSP,2013-03-09 23:30:00,
2013-03-09 17:35:00,37.0,29.5,29.83,SE,135,3.1,5.1,74,0.00,,,0.00,WUHU21623XXSP,2013-03-09 23:35:00,
2013-03-09 17:40:00,36.9,29.0,29.83,SE,135,0.9,5.1,73,0.00,,,0.00,WUHU21623XXSP,2013-03-09 23:40:00,
2013-03-09 17:45:00,36.5,28.7,29.83,SE,135,1.6,3.1,73,0.00,,,0.00,WUHU21623XXSP,2013-03-09 23:45:00,
2013-03-09 17:50:00,36.5,28.7,29.83,South,180,2.0,3.1,73,0.00,,,0.00,WUHU21623XXSP,2013-03-09 23:50:00,
2013-03-09 17:55:00,36.5,29.0,29.82,SE,135,0.7,2.7,74,0.00,,,0.00,WUHU21623XXSP,2013-03-09 23:55:00,
2013-03-09 18:00:00,36.5,29.0,29.82,SE,135,5.4,5.4,74,0.00,,,0.00,WUHU21623XXSP,2013-03-10 00:00:00,
2013-03-09 18:05:00,36.5,29.0,29.82,SE,135,5.6,6.7,74,0.00,,,0.00,WUHU21623XXSP,2013-03-10 00:05:00,
2013-03-09 18:10:00,36.7,29.2,29.82,SE,135,4.7,6.7,74,0.00,,,0.00,WUHU21623XXSP,2013-03-10 00:10:00,
2013-03-09 18:15:00,36.7,29.2,29.83,SSE,157,2.7,6.5,74,0.00,,,0.00,WUHU21623XXSP,2013-03-10 00:15:00,
2013-03-09 18:20:00,36.9,29.3,29.83,SSE,157,4.5,6.5,74,0.00,,,0.00,WUHU21623XXSP,2013-03-10 00:20:00,
2013-03-09 18:25:00,36.7,29.2,29.82,SSE,157,1.1,4.5,74,0.00,,,0.00,WUHU21623XXSP,2013-03-10 00:25:00,
2013-03-09 18:30:00,36.9,29.7,29.83,South,180,6.5,6.5,75,0.00,,,0.00,WUHU21623XXSP,2013-03-10 00:30:00,
2013-03-09 18:35:00,36.9,29.7,29.84,WSW,247,3.8,6.5,75,0.00,,,0.00,WUHU21623XXSP,2013-03-10 00:35:00,
2013-03-09 18:40:00,36.9,29.5,29.84,SSW,202,0.0,3.8,75,0.00,,,0.00,WUHU21623XXSP,2013-03-10 00:40:00,
2013-03-09 18:45:00,36.7,29.2,29.84,South,180,0.0,0.7,74,0.00,,,0.00,WUHU21623XXSP,2013-03-10 00:45:00,
2013-03-09 18:50:00,36.7,29.2,29.84,SE,135,0.7,0.7,74,0.00,,,0.00,WUHU21623XXSP,2013-03-10 00:50:00,
2013-03-09 18:55:00,36.7,29.2,29.85,SE,135,0.0,0.7,74,0.00,,,0.00,WUHU21623XXSP,2013-03-10 00:55:00,
2013-03-09 19:00:00,36.5,29.0,29.85,SE,135,0.0,0.0,74,0.00,,,0.00,WUHU21623XXSP,2013-03-10 01:00:00,
2013-03-09 19:05:00,36.5,29.0,29.85,SE,135,0.0,0.0,74,0.00,,,0.00,WUHU21623XXSP,2013-03-10 01:05:00,
2013-03-09 19:10:00,36.5,29.0,29.85,SE,135,0.0,0.0,74,0.00,,,0.00,WUHU21623XXSP,2013-03-10 01:10:00,
2013-03-09 19:15:00,36.5,29.0,29.84,SE,135,1.6,1.6,74,0.00,,,0.00,WUHU21623XXSP,2013-03-10 01:15:00,
2013-03-09 19:20:00,36.3,29.1,29.83,SE,135,2.2,2.5,75,0.00,,,0.00,WUHU21623XXSP,2013-03-10 01:20:00,
2013-03-09 19:25:00,36.3,29.1,29.83,SE,135,0.4,2.5,75,0.00,,,0.00,WUHU21623XXSP,2013-03-10 01:25:00,
2013-03-09 19:30:00,36.5,29.3,29.83,SSE,157,2.0,2.0,75,0.00,,,0.00,WUHU21623XXSP,2013-03-10 01:30:00,
2013-03-09 19:35:00,36.5,29.3,29.83,SSE,157,0.9,2.0,75,0.00,,,0.00,WUHU21623XXSP,2013-03-10 01:35:00,
2013-03-09 19:40:00,36.7,29.8,29.82,SE,135,1.3,5.6,76,0.00,,,0.00,WUHU21623XXSP,2013-03-10 01:40:00,
2013-03-09 19:45:00,36.9,30.0,29.82,SSE,157,1.3,5.6,76,0.00,,,0.00,WUHU21623XXSP,2013-03-10 01:45:00,
2013-03-09 19:50:00,37.0,30.2,29.82,SE,135,4.0,5.1,76,0.00,,,0.00,WUHU21623XXSP,2013-03-10 01:50:00,
2013-03-09 19:55:00,37.0,30.2,29.82,SE,135,1.6,4.0,76,0.00,,,0.00,WUHU21623XXSP,2013-03-10 01:55:00,
2013-03-09 20:00:00,37.0,30.2,29.82,SSE,157,6.7,6.7,76,0.00,,,0.00,WUHU21623XXSP,2013-03-10 02:00:00,
2013-03-09 20:05:00,37.0,30.2,29.81,SE,135,1.1,6.7,76,0.00,,,0.00,WUHU21623XXSP,2013-03-10 02:05:00,
2013-03-09 20:10:00,37.4,30.5,29.81,SE,135,1.3,6.0,76,0.00,,,0.00,WUHU21623XXSP,2013-03-10 02:10:00,
2013-03-09 20:15:00,37.6,30.7,29.81,SSE,157,6.3,6.3,76,0.00,,,0.00,WUHU21623XXSP,2013-03-10 02:15:00,
2013-03-09 20:20:00,37.6,30.7,29.81,ESE,112,5.1,6.3,76,0.00,,,0.00,WUHU21623XXSP,2013-03-10 02:20:00,
2013-03-09 20:25:00,37.6,30.7,29.80,SE,135,3.4,6.3,76,0.00,,,0.00,WUHU21623XXSP,2013-03-10 02:25:00,
2013-03-09 20:30:00,37.8,30.9,29.80,SSE,157,4.0,6.3,76,0.00,,,0.00,WUHU21623XXSP,2013-03-10 02:30:00,
2013-03-09 20:35:00,37.8,30.9,29.80,SE,135,2.2,4.7,76,0.00,,,0.00,WUHU21623XXSP,2013-03-10 02:35:00,
2013-03-09 20:40:00,37.8,30.9,29.81,SSE,157,3.1,5.6,76,0.00,,,0.00,WUHU21623XXSP,2013-03-10 02:40:00,
2013-03-09 20:45:00,37.8,31.2,29.80,SE,135,0.4,6.0,77,0.00,,,0.00,WUHU21623XXSP,2013-03-10 02:45:00,
2013-03-09 20:50:00,37.8,31.2,29.80,SE,135,3.1,6.7,77,0.00,,,0.00,WUHU21623XXSP,2013-03-10 02:50:00,
2013-03-09 20:55:00,37.9,31.4,29.80,SE,135,3.6,7.6,77,0.00,,,0.00,WUHU21623XXSP,2013-03-10 02:55:00,
2013-03-09 21:00:00,38.1,31.5,29.80,SE,135,6.5,7.6,77,0.00,,,0.00,WUHU21623XXSP,2013-03-10 03:00:00,
2013-03-09 21:05:00,38.3,31.7,29.80,ESE,112,6.5,6.5,77,0.00,,,0.00,WUHU21623XXSP,2013-03-10 03:05:00,
2013-03-09 21:10:00,38.3,31.7,29.79,South,180,4.5,8.1,77,0.00,,,0.00,WUHU21623XXSP,2013-03-10 03:10:00,
2013-03-09 21:15:00,38.3,31.7,29.80,SSE,157,6.5,8.1,77,0.00,,,0.00,WUHU21623XXSP,2013-03-10 03:15:00,
2013-03-09 21:20:00,38.3,31.7,29.80,SE,135,2.9,6.5,77,0.00,,,0.00,WUHU21623XXSP,2013-03-10 03:20:00,
2013-03-09 21:25:00,38.7,32.1,29.80,ESE,112,3.8,6.9,77,0.00,,,0.00,WUHU21623XXSP,2013-03-10 03:25:00,
2013-03-09 21:30:00,38.7,32.1,29.80,SSE,157,2.0,6.9,77,0.00,,,0.00,WUHU21623XXSP,2013-03-10 03:30:00,
2013-03-09 21:35:00,38.7,32.1,29.80,South,180,4.5,4.5,77,0.00,,,0.00,WUHU21623XXSP,2013-03-10 03:35:00,
2013-03-09 21:40:00,38.5,31.6,29.80,SSE,157,1.1,4.5,76,0.00,,,0.00,WUHU21623XXSP,2013-03-10 03:40:00,
2013-03-09 21:45:00,38.7,31.7,29.81,SE,135,1.1,4.5,76,0.00,,,0.00,WUHU21623XXSP,2013-03-10 03:45:00,
2013-03-09 21:50:00,38.7,31.7,29.80,SSE,157,0.7,1.3,76,0.00,,,0.00,WUHU21623XXSP,2013-03-10 03:50:00,
2013-03-09 21:55:00,38.3,31.4,29.81,SSE,157,0.7,0.9,76,0.00,,,0.00,WUHU21623XXSP,2013-03-10 03:55:00,
2013-03-09 22:00:00,38.3,31.4,29.81,South,180,1.3,1.3,76,0.00,,,0.00,WUHU21623XXSP,2013-03-10 04:00:00,
2013-03-09 22:05:00,38.3,31.4,29.80,SE,135,0.7,2.0,76,0.00,,,0.00,WUHU21623XXSP,2013-03-10 04:05:00,
2013-03-09 22:10:00,38.3,31.4,29.79,SE,135,0.2,2.0,76,0.00,,,0.00,WUHU21623XXSP,2013-03-10 04:10:00,
2013-03-09 22:15:00,38.1,31.2,29.79,SSE,157,1.3,1.3,76,0.00,,,0.00,WUHU21623XXSP,2013-03-10 04:15:00,
2013-03-09 22:20:00,38.3,31.4,29.79,SE,135,0.7,1.3,76,0.00,,,0.00,WUHU21623XXSP,2013-03-10 04:20:00,
2013-03-09 22:25:00,38.3,31.7,29.78,SSE,157,4.9,4.9,77,0.00,,,0.00,WUHU21623XXSP,2013-03-10 04:25:00,
2013-03-09 22:30:00,38.5,31.9,29.78,SE,135,5.6,5.6,77,0.00,,,0.00,WUHU21623XXSP,2013-03-10 04:30:00,
2013-03-09 22:35:00,38.7,32.1,29.77,SE,135,4.7,5.6,77,0.00,,,0.00,WUHU21623XXSP,2013-03-10 04:35:00,
2013-03-09 22:40:00,38.8,32.2,29.77,ESE,112,1.1,6.5,77,0.00,,,0.00,WUHU21623XXSP,2013-03-10 04:40:00,
2013-03-09 22:45:00,39.0,32.4,29.77,SE,135,2.9,6.5,77,0.00,,,0.00,WUHU21623XXSP,2013-03-10 04:45:00,
2013-03-09 22:50:00,39.4,32.8,29.77,SE,135,0.4,5.1,77,0.00,,,0.00,WUHU21623XXSP,2013-03-10 04:50:00,
2013-03-09 22:55:00,39.4,32.8,29.76,SE,135,4.5,5.1,77,0.00,,,0.00,WUHU21623XXSP,2013-03-10 04:55:00,
2013-03-09 23:00:00,39.4,32.8,29.76,SE,135,4.7,4.7,77,0.00,,,0.00,WUHU21623XXSP,2013-03-10 05:00:00,
2013-03-09 23:05:00,39.6,32.6,29.76,SE,135,4.3,4.7,76,0.00,,,0.00,WUHU21623XXSP,2013-03-10 05:05:00,
2013-03-09 23:10:00,39.6,32.6,29.76,SE,135,1.3,4.3,76,0.00,,,0.00,WUHU21623XXSP,2013-03-10 05:10:00,
2013-03-09 23:15:00,39.6,32.6,29.75,ESE,112,0.9,2.7,76,0.00,,,0.00,WUHU21623XXSP,2013-03-10 05:15:00,
2013-03-09 23:20:00,39.7,32.8,29.76,SE,135,4.0,4.0,76,0.00,,,0.00,WUHU21623XXSP,2013-03-10 05:20:00,
2013-03-09 23:25:00,39.9,32.9,29.76,SE,135,1.3,4.0,76,0.00,,,0.00,WUHU21623XXSP,2013-03-10 05:25:00,
2013-03-09 23:30:00,39.9,32.9,29.76,SSE,157,4.9,4.9,76,0.00,,,0.00,WUHU21623XXSP,2013-03-10 05:30:00,
2013-03-09 23:35:00,39.9,32.6,29.77,SSE,157,2.2,4.9,75,0.00,,,0.00,WUHU21623XXSP,2013-03-10 05:35:00,
2013-03-09 23:40:00,39.9,32.6,29.76,ESE,112,2.9,3.8,75,0.00,,,0.00,WUHU21623XXSP,2013-03-10 05:40:00,
2013-03-09 23:45:00,39.9,32.6,29.76,SSE,157,1.8,2.9,75,0.00,,,0.00,WUHU21623XXSP,2013-03-10 05:45:00,
2013-03-09 23:50:00,39.6,31.9,29.76,SE,135,0.4,5.6,74,0.00,,,0.00,WUHU21623XXSP,2013-03-10 05:50:00,
2013-03-09 23:55:00,39.6,31.9,29.76,SSE,157,0.7,5.6,74,0.00,,,0.00,WUHU21623XXSP,2013-03-10 05:55:00,